sensor_id;sensor_type;location;lat;lon;timestamp;P1;durP1;ratioP1;P2;durP2;ratioP2
56653;SDS011;45096;52.302;4.634;2023-07-08T00:00:47;2.78;;;2.22;;
56653;SDS011;45096;52.302;4.634;2023-07-08T00:03:13;2.47;;;2.28;;
56653;SDS011;45096;52.302;4.634;2023-07-08T00:05:38;2.55;;;2.35;;
56653;SDS011;45096;52.302;4.634;2023-07-08T00:08:04;2.63;;;2.42;;
56653;SDS011;45096;52.302;4.634;2023-07-08T00:10:31;2.45;;;2.25;;
56653;SDS011;45096;52.302;4.634;2023-07-08T00:12:57;2.10;;;2.00;;
56653;SDS011;45096;52.302;4.634;2023-07-08T00:15:24;2.25;;;2.15;;
56653;SDS011;45096;52.302;4.634;2023-07-08T00:17:51;2.30;;;2.20;;
56653;SDS011;45096;52.302;4.634;2023-07-08T00:20:17;2.67;;;2.58;;
56653;SDS011;45096;52.302;4.634;2023-07-08T00:22:44;2.22;;;2.05;;
56653;SDS011;45096;52.302;4.634;2023-07-08T00:25:10;2.65;;;2.50;;
56653;SDS011;45096;52.302;4.634;2023-07-08T00:27:36;2.20;;;2.10;;
56653;SDS011;45096;52.302;4.634;2023-07-08T00:30:07;2.90;;;2.30;;
56653;SDS011;45096;52.302;4.634;2023-07-08T00:32:38;2.65;;;2.45;;
56653;SDS011;45096;52.302;4.634;2023-07-08T00:35:04;2.38;;;2.17;;
56653;SDS011;45096;52.302;4.634;2023-07-08T00:37:30;2.65;;;2.45;;
56653;SDS011;45096;52.302;4.634;2023-07-08T00:39:56;2.63;;;2.42;;
56653;SDS011;45096;52.302;4.634;2023-07-08T00:42:21;2.65;;;2.45;;
56653;SDS011;45096;52.302;4.634;2023-07-08T00:44:50;2.50;;;2.17;;
56653;SDS011;45096;52.302;4.634;2023-07-08T00:47:16;1.92;;;1.83;;
56653;SDS011;45096;52.302;4.634;2023-07-08T00:49:43;2.75;;;2.40;;
56653;SDS011;45096;52.302;4.634;2023-07-08T00:52:17;2.53;;;2.33;;
56653;SDS011;45096;52.302;4.634;2023-07-08T00:54:44;3.17;;;2.67;;
56653;SDS011;45096;52.302;4.634;2023-07-08T00:57:10;3.13;;;2.60;;
56653;SDS011;45096;52.302;4.634;2023-07-08T00:59:36;2.80;;;2.60;;
56653;SDS011;45096;52.302;4.634;2023-07-08T01:02:06;2.60;;;2.42;;
56653;SDS011;45096;52.302;4.634;2023-07-08T01:04:35;2.80;;;2.60;;
56653;SDS011;45096;52.302;4.634;2023-07-08T01:07:04;2.58;;;2.38;;
56653;SDS011;45096;52.302;4.634;2023-07-08T01:09:30;2.53;;;2.33;;
56653;SDS011;45096;52.302;4.634;2023-07-08T01:11:58;2.45;;;2.35;;
56653;SDS011;45096;52.302;4.634;2023-07-08T01:14:27;2.92;;;2.65;;
56653;SDS011;45096;52.302;4.634;2023-07-08T01:16:54;2.60;;;2.40;;
56653;SDS011;45096;52.302;4.634;2023-07-08T01:19:21;4.43;;;2.03;;
56653;SDS011;45096;52.302;4.634;2023-07-08T01:21:48;2.70;;;2.50;;
56653;SDS011;45096;52.302;4.634;2023-07-08T01:24:23;2.92;;;2.28;;
56653;SDS011;45096;52.302;4.634;2023-07-08T01:26:48;2.33;;;2.22;;
56653;SDS011;45096;52.302;4.634;2023-07-08T01:29:14;2.45;;;2.25;;
56653;SDS011;45096;52.302;4.634;2023-07-08T01:31:39;2.40;;;2.30;;
56653;SDS011;45096;52.302;4.634;2023-07-08T01:34:07;2.95;;;2.75;;
56653;SDS011;45096;52.302;4.634;2023-07-08T01:36:34;2.55;;;2.35;;
56653;SDS011;45096;52.302;4.634;2023-07-08T01:39:03;2.55;;;2.35;;
56653;SDS011;45096;52.302;4.634;2023-07-08T01:41:29;2.10;;;2.00;;
56653;SDS011;45096;52.302;4.634;2023-07-08T01:43:54;3.92;;;2.80;;
56653;SDS011;45096;52.302;4.634;2023-07-08T01:46:21;2.33;;;2.15;;
56653;SDS011;45096;52.302;4.634;2023-07-08T01:48:49;2.17;;;2.08;;
56653;SDS011;45096;52.302;4.634;2023-07-08T01:51:16;3.47;;;2.60;;
56653;SDS011;45096;52.302;4.634;2023-07-08T01:53:42;2.95;;;2.70;;
56653;SDS011;45096;52.302;4.634;2023-07-08T01:56:09;2.50;;;2.30;;
56653;SDS011;45096;52.302;4.634;2023-07-08T01:58:37;2.38;;;2.28;;
56653;SDS011;45096;52.302;4.634;2023-07-08T02:01:02;2.85;;;2.65;;
56653;SDS011;45096;52.302;4.634;2023-07-08T02:03:28;2.50;;;2.30;;
56653;SDS011;45096;52.302;4.634;2023-07-08T02:05:54;2.60;;;2.38;;
56653;SDS011;45096;52.302;4.634;2023-07-08T02:08:20;2.58;;;2.38;;
56653;SDS011;45096;52.302;4.634;2023-07-08T02:10:49;2.90;;;2.70;;
56653;SDS011;45096;52.302;4.634;2023-07-08T02:13:16;3.28;;;2.50;;
56653;SDS011;45096;52.302;4.634;2023-07-08T02:15:42;3.03;;;2.60;;
56653;SDS011;45096;52.302;4.634;2023-07-08T02:18:07;2.40;;;2.30;;
56653;SDS011;45096;52.302;4.634;2023-07-08T02:20:33;2.92;;;2.70;;
56653;SDS011;45096;52.302;4.634;2023-07-08T02:22:58;2.92;;;2.60;;
56653;SDS011;45096;52.302;4.634;2023-07-08T02:25:23;2.70;;;2.50;;
56653;SDS011;45096;52.302;4.634;2023-07-08T02:27:49;2.78;;;2.58;;
56653;SDS011;45096;52.302;4.634;2023-07-08T02:30:16;2.40;;;2.30;;
56653;SDS011;45096;52.302;4.634;2023-07-08T02:32:41;2.78;;;2.58;;
56653;SDS011;45096;52.302;4.634;2023-07-08T02:35:07;2.20;;;2.10;;
56653;SDS011;45096;52.302;4.634;2023-07-08T02:37:33;2.92;;;1.98;;
56653;SDS011;45096;52.302;4.634;2023-07-08T02:39:59;2.88;;;2.60;;
56653;SDS011;45096;52.302;4.634;2023-07-08T02:42:24;3.08;;;2.78;;
56653;SDS011;45096;52.302;4.634;2023-07-08T02:44:50;2.70;;;2.25;;
56653;SDS011;45096;52.302;4.634;2023-07-08T02:47:16;3.78;;;2.50;;
56653;SDS011;45096;52.302;4.634;2023-07-08T02:49:42;2.75;;;2.55;;
56653;SDS011;45096;52.302;4.634;2023-07-08T02:52:07;3.85;;;2.25;;
56653;SDS011;45096;52.302;4.634;2023-07-08T02:54:33;2.47;;;2.35;;
56653;SDS011;45096;52.302;4.634;2023-07-08T02:56:58;3.03;;;2.83;;
56653;SDS011;45096;52.302;4.634;2023-07-08T02:59:24;2.42;;;2.20;;
56653;SDS011;45096;52.302;4.634;2023-07-08T03:01:49;2.65;;;2.55;;
56653;SDS011;45096;52.302;4.634;2023-07-08T03:04:16;2.42;;;2.22;;
56653;SDS011;45096;52.302;4.634;2023-07-08T03:06:42;2.70;;;2.50;;
56653;SDS011;45096;52.302;4.634;2023-07-08T03:09:08;2.97;;;2.78;;
56653;SDS011;45096;52.302;4.634;2023-07-08T03:11:35;2.80;;;2.60;;
56653;SDS011;45096;52.302;4.634;2023-07-08T03:14:00;2.38;;;2.28;;
56653;SDS011;45096;52.302;4.634;2023-07-08T03:16:26;2.47;;;2.33;;
56653;SDS011;45096;52.302;4.634;2023-07-08T03:18:51;2.22;;;2.13;;
56653;SDS011;45096;52.302;4.634;2023-07-08T03:21:18;2.92;;;2.50;;
56653;SDS011;45096;52.302;4.634;2023-07-08T03:23:44;2.55;;;2.40;;
56653;SDS011;45096;52.302;4.634;2023-07-08T03:26:09;2.75;;;2.55;;
56653;SDS011;45096;52.302;4.634;2023-07-08T03:28:38;2.55;;;2.35;;
56653;SDS011;45096;52.302;4.634;2023-07-08T03:31:03;3.33;;;3.03;;
56653;SDS011;45096;52.302;4.634;2023-07-08T03:33:29;3.03;;;2.83;;
56653;SDS011;45096;52.302;4.634;2023-07-08T03:35:54;3.20;;;2.80;;
56653;SDS011;45096;52.302;4.634;2023-07-08T03:38:21;2.60;;;2.40;;
56653;SDS011;45096;52.302;4.634;2023-07-08T03:40:47;3.00;;;2.80;;
56653;SDS011;45096;52.302;4.634;2023-07-08T03:43:12;2.95;;;2.75;;
56653;SDS011;45096;52.302;4.634;2023-07-08T03:45:37;2.88;;;2.67;;
56653;SDS011;45096;52.302;4.634;2023-07-08T03:48:03;2.70;;;2.50;;
56653;SDS011;45096;52.302;4.634;2023-07-08T03:50:29;3.80;;;2.63;;
56653;SDS011;45096;52.302;4.634;2023-07-08T03:52:54;2.75;;;2.55;;
56653;SDS011;45096;52.302;4.634;2023-07-08T03:55:21;3.08;;;2.80;;
56653;SDS011;45096;52.302;4.634;2023-07-08T03:57:47;3.30;;;3.00;;
56653;SDS011;45096;52.302;4.634;2023-07-08T04:00:13;2.80;;;2.60;;
56653;SDS011;45096;52.302;4.634;2023-07-08T04:02:39;3.08;;;2.88;;
56653;SDS011;45096;52.302;4.634;2023-07-08T04:05:05;2.85;;;2.65;;
56653;SDS011;45096;52.302;4.634;2023-07-08T04:07:31;3.38;;;3.08;;
56653;SDS011;45096;52.302;4.634;2023-07-08T04:09:56;3.15;;;2.70;;
56653;SDS011;45096;52.302;4.634;2023-07-08T04:12:23;2.65;;;2.42;;
56653;SDS011;45096;52.302;4.634;2023-07-08T04:14:48;3.58;;;3.00;;
56653;SDS011;45096;52.302;4.634;2023-07-08T04:17:14;3.25;;;3.05;;
56653;SDS011;45096;52.302;4.634;2023-07-08T04:19:40;3.88;;;3.40;;
56653;SDS011;45096;52.302;4.634;2023-07-08T04:22:05;3.22;;;2.50;;
56653;SDS011;45096;52.302;4.634;2023-07-08T04:24:31;3.03;;;2.83;;
56653;SDS011;45096;52.302;4.634;2023-07-08T04:26:56;3.38;;;3.00;;
56653;SDS011;45096;52.302;4.634;2023-07-08T04:29:23;5.38;;;3.13;;
56653;SDS011;45096;52.302;4.634;2023-07-08T04:31:49;2.70;;;2.50;;
56653;SDS011;45096;52.302;4.634;2023-07-08T04:34:15;4.00;;;2.58;;
56653;SDS011;45096;52.302;4.634;2023-07-08T04:36:41;2.50;;;2.30;;
56653;SDS011;45096;52.302;4.634;2023-07-08T04:39:07;2.80;;;2.60;;
56653;SDS011;45096;52.302;4.634;2023-07-08T04:41:33;3.20;;;2.85;;
56653;SDS011;45096;52.302;4.634;2023-07-08T04:43:58;2.35;;;2.15;;
56653;SDS011;45096;52.302;4.634;2023-07-08T04:46:32;2.63;;;2.53;;
56653;SDS011;45096;52.302;4.634;2023-07-08T04:49:00;3.10;;;2.70;;
56653;SDS011;45096;52.302;4.634;2023-07-08T04:51:25;3.10;;;2.90;;
56653;SDS011;45096;52.302;4.634;2023-07-08T04:53:51;2.80;;;2.60;;
56653;SDS011;45096;52.302;4.634;2023-07-08T04:56:16;2.53;;;2.33;;
56653;SDS011;45096;52.302;4.634;2023-07-08T04:58:42;2.88;;;2.63;;
56653;SDS011;45096;52.302;4.634;2023-07-08T05:01:07;2.80;;;2.60;;
56653;SDS011;45096;52.302;4.634;2023-07-08T05:03:34;3.00;;;2.80;;
56653;SDS011;45096;52.302;4.634;2023-07-08T05:05:59;3.00;;;2.50;;
56653;SDS011;45096;52.302;4.634;2023-07-08T05:08:25;2.97;;;2.78;;
56653;SDS011;45096;52.302;4.634;2023-07-08T05:10:50;3.08;;;2.83;;
56653;SDS011;45096;52.302;4.634;2023-07-08T05:13:15;3.05;;;2.67;;
56653;SDS011;45096;52.302;4.634;2023-07-08T05:15:41;3.22;;;2.40;;
56653;SDS011;45096;52.302;4.634;2023-07-08T05:18:06;2.72;;;2.53;;
56653;SDS011;45096;52.302;4.634;2023-07-08T05:20:33;2.80;;;2.60;;
56653;SDS011;45096;52.302;4.634;2023-07-08T05:22:58;2.78;;;2.58;;
56653;SDS011;45096;52.302;4.634;2023-07-08T05:25:24;3.22;;;2.83;;
56653;SDS011;45096;52.302;4.634;2023-07-08T05:27:49;2.67;;;2.47;;
56653;SDS011;45096;52.302;4.634;2023-07-08T05:30:15;3.42;;;2.78;;
56653;SDS011;45096;52.302;4.634;2023-07-08T05:32:42;2.53;;;2.33;;
56653;SDS011;45096;52.302;4.634;2023-07-08T05:35:08;2.65;;;2.55;;
56653;SDS011;45096;52.302;4.634;2023-07-08T05:37:35;3.38;;;2.72;;
56653;SDS011;45096;52.302;4.634;2023-07-08T05:40:00;2.80;;;2.60;;
56653;SDS011;45096;52.302;4.634;2023-07-08T05:42:26;2.90;;;2.67;;
56653;SDS011;45096;52.302;4.634;2023-07-08T05:44:51;2.97;;;2.78;;
56653;SDS011;45096;52.302;4.634;2023-07-08T05:47:16;2.67;;;2.47;;
56653;SDS011;45096;52.302;4.634;2023-07-08T05:49:42;2.75;;;2.55;;
56653;SDS011;45096;52.302;4.634;2023-07-08T05:52:07;3.15;;;2.80;;
56653;SDS011;45096;52.302;4.634;2023-07-08T05:54:34;2.90;;;2.70;;
56653;SDS011;45096;52.302;4.634;2023-07-08T05:57:00;3.58;;;2.75;;
56653;SDS011;45096;52.302;4.634;2023-07-08T05:59:25;3.47;;;2.28;;
56653;SDS011;45096;52.302;4.634;2023-07-08T06:01:51;4.80;;;2.90;;
56653;SDS011;45096;52.302;4.634;2023-07-08T06:04:16;2.90;;;2.70;;
56653;SDS011;45096;52.302;4.634;2023-07-08T06:06:41;2.95;;;2.67;;
56653;SDS011;45096;52.302;4.634;2023-07-08T06:09:07;3.83;;;2.70;;
56653;SDS011;45096;52.302;4.634;2023-07-08T06:11:34;3.58;;;2.50;;
56653;SDS011;45096;52.302;4.634;2023-07-08T06:13:59;3.08;;;2.80;;
56653;SDS011;45096;52.302;4.634;2023-07-08T06:16:24;3.85;;;2.40;;
56653;SDS011;45096;52.302;4.634;2023-07-08T06:18:50;3.50;;;2.78;;
56653;SDS011;45096;52.302;4.634;2023-07-08T06:21:15;2.42;;;2.22;;
56653;SDS011;45096;52.302;4.634;2023-07-08T06:23:41;3.00;;;2.80;;
56653;SDS011;45096;52.302;4.634;2023-07-08T06:26:06;2.63;;;2.30;;
56653;SDS011;45096;52.302;4.634;2023-07-08T06:28:33;2.78;;;2.58;;
56653;SDS011;45096;52.302;4.634;2023-07-08T06:30:58;3.20;;;2.65;;
56653;SDS011;45096;52.302;4.634;2023-07-08T06:33:24;2.75;;;2.55;;
56653;SDS011;45096;52.302;4.634;2023-07-08T06:35:49;2.80;;;2.60;;
56653;SDS011;45096;52.302;4.634;2023-07-08T06:38:14;2.88;;;2.47;;
56653;SDS011;45096;52.302;4.634;2023-07-08T06:40:40;2.75;;;2.55;;
56653;SDS011;45096;52.302;4.634;2023-07-08T06:43:05;3.15;;;2.60;;
56653;SDS011;45096;52.302;4.634;2023-07-08T06:45:32;4.45;;;2.70;;
56653;SDS011;45096;52.302;4.634;2023-07-08T06:47:57;2.33;;;2.10;;
56653;SDS011;45096;52.302;4.634;2023-07-08T06:50:23;2.60;;;2.40;;
56653;SDS011;45096;52.302;4.634;2023-07-08T06:52:48;2.70;;;2.50;;
56653;SDS011;45096;52.302;4.634;2023-07-08T06:55:14;2.85;;;2.65;;
56653;SDS011;45096;52.302;4.634;2023-07-08T06:57:39;2.47;;;2.30;;
56653;SDS011;45096;52.302;4.634;2023-07-08T07:00:05;3.13;;;2.92;;
56653;SDS011;45096;52.302;4.634;2023-07-08T07:02:33;2.63;;;2.42;;
56653;SDS011;45096;52.302;4.634;2023-07-08T07:04:58;3.40;;;2.53;;
56653;SDS011;45096;52.302;4.634;2023-07-08T07:07:24;2.63;;;2.42;;
56653;SDS011;45096;52.302;4.634;2023-07-08T07:09:49;3.40;;;2.83;;
56653;SDS011;45096;52.302;4.634;2023-07-08T07:12:15;3.00;;;2.70;;
56653;SDS011;45096;52.302;4.634;2023-07-08T07:14:40;3.50;;;2.88;;
56653;SDS011;45096;52.302;4.634;2023-07-08T07:17:05;2.78;;;2.58;;
56653;SDS011;45096;52.302;4.634;2023-07-08T07:19:32;2.63;;;2.42;;
56653;SDS011;45096;52.302;4.634;2023-07-08T07:21:58;3.35;;;2.70;;
56653;SDS011;45096;52.302;4.634;2023-07-08T07:24:23;2.97;;;2.78;;
56653;SDS011;45096;52.302;4.634;2023-07-08T07:26:48;3.03;;;2.83;;
56653;SDS011;45096;52.302;4.634;2023-07-08T07:29:16;2.75;;;2.60;;
56653;SDS011;45096;52.302;4.634;2023-07-08T07:31:46;2.63;;;2.42;;
56653;SDS011;45096;52.302;4.634;2023-07-08T07:34:12;2.83;;;2.63;;
56653;SDS011;45096;52.302;4.634;2023-07-08T07:36:38;2.95;;;2.58;;
56653;SDS011;45096;52.302;4.634;2023-07-08T07:39:04;3.10;;;2.80;;
56653;SDS011;45096;52.302;4.634;2023-07-08T07:41:29;3.13;;;2.90;;
56653;SDS011;45096;52.302;4.634;2023-07-08T07:43:55;2.92;;;2.63;;
56653;SDS011;45096;52.302;4.634;2023-07-08T07:46:21;2.90;;;2.70;;
56653;SDS011;45096;52.302;4.634;2023-07-08T07:48:46;3.30;;;3.00;;
56653;SDS011;45096;52.302;4.634;2023-07-08T07:51:12;4.47;;;3.05;;
56653;SDS011;45096;52.302;4.634;2023-07-08T07:53:39;3.47;;;2.80;;
56653;SDS011;45096;52.302;4.634;2023-07-08T07:56:04;2.50;;;2.30;;
56653;SDS011;45096;52.302;4.634;2023-07-08T07:58:30;3.50;;;3.00;;
56653;SDS011;45096;52.302;4.634;2023-07-08T08:00:56;4.40;;;2.72;;
56653;SDS011;45096;52.302;4.634;2023-07-08T08:03:22;3.33;;;2.60;;
56653;SDS011;45096;52.302;4.634;2023-07-08T08:05:48;3.50;;;3.20;;
56653;SDS011;45096;52.302;4.634;2023-07-08T08:08:13;3.80;;;3.47;;
56653;SDS011;45096;52.302;4.634;2023-07-08T08:10:40;4.82;;;3.30;;
56653;SDS011;45096;52.302;4.634;2023-07-08T08:13:07;4.53;;;4.10;;
56653;SDS011;45096;52.302;4.634;2023-07-08T08:15:32;6.63;;;4.47;;
56653;SDS011;45096;52.302;4.634;2023-07-08T08:17:57;5.97;;;4.40;;
56653;SDS011;45096;52.302;4.634;2023-07-08T08:20:23;8.05;;;4.57;;
56653;SDS011;45096;52.302;4.634;2023-07-08T08:22:50;5.25;;;3.95;;
56653;SDS011;45096;52.302;4.634;2023-07-08T08:25:16;5.25;;;3.75;;
56653;SDS011;45096;52.302;4.634;2023-07-08T08:27:44;5.32;;;3.60;;
56653;SDS011;45096;52.302;4.634;2023-07-08T08:30:10;4.03;;;3.63;;
56653;SDS011;45096;52.302;4.634;2023-07-08T08:32:36;4.43;;;3.70;;
56653;SDS011;45096;52.302;4.634;2023-07-08T08:35:02;5.88;;;5.22;;
56653;SDS011;45096;52.302;4.634;2023-07-08T08:37:27;5.10;;;4.40;;
56653;SDS011;45096;52.302;4.634;2023-07-08T08:39:53;5.20;;;3.80;;
56653;SDS011;45096;52.302;4.634;2023-07-08T08:42:20;4.50;;;3.95;;
56653;SDS011;45096;52.302;4.634;2023-07-08T08:44:51;3.85;;;3.50;;
56653;SDS011;45096;52.302;4.634;2023-07-08T08:47:19;51.75;;;8.55;;
56653;SDS011;45096;52.302;4.634;2023-07-08T08:49:53;33.22;;;6.90;;
56653;SDS011;45096;52.302;4.634;2023-07-08T08:52:21;21.52;;;5.70;;
56653;SDS011;45096;52.302;4.634;2023-07-08T08:54:46;19.08;;;5.22;;
56653;SDS011;45096;52.302;4.634;2023-07-08T08:57:13;16.35;;;5.03;;
56653;SDS011;45096;52.302;4.634;2023-07-08T08:59:46;11.35;;;5.75;;
56653;SDS011;45096;52.302;4.634;2023-07-08T09:02:21;9.75;;;4.60;;
56653;SDS011;45096;52.302;4.634;2023-07-08T09:04:51;15.43;;;5.03;;
56653;SDS011;45096;52.302;4.634;2023-07-08T09:07:17;14.77;;;4.90;;
56653;SDS011;45096;52.302;4.634;2023-07-08T09:09:45;14.52;;;4.88;;
56653;SDS011;45096;52.302;4.634;2023-07-08T09:12:16;9.68;;;3.85;;
56653;SDS011;45096;52.302;4.634;2023-07-08T09:14:43;7.85;;;4.75;;
56653;SDS011;45096;52.302;4.634;2023-07-08T09:17:14;5.88;;;4.07;;
56653;SDS011;45096;52.302;4.634;2023-07-08T09:19:42;7.93;;;4.30;;
56653;SDS011;45096;52.302;4.634;2023-07-08T09:22:11;4.57;;;3.92;;
56653;SDS011;45096;52.302;4.634;2023-07-08T09:24:40;8.60;;;4.78;;
56653;SDS011;45096;52.302;4.634;2023-07-08T09:27:07;7.18;;;4.20;;
56653;SDS011;45096;52.302;4.634;2023-07-08T09:29:33;6.90;;;3.75;;
56653;SDS011;45096;52.302;4.634;2023-07-08T09:31:58;11.05;;;4.28;;
56653;SDS011;45096;52.302;4.634;2023-07-08T09:34:35;6.38;;;3.80;;
56653;SDS011;45096;52.302;4.634;2023-07-08T09:37:03;8.75;;;4.75;;
56653;SDS011;45096;52.302;4.634;2023-07-08T09:39:47;9.07;;;4.47;;
56653;SDS011;45096;52.302;4.634;2023-07-08T09:42:13;7.57;;;4.53;;
56653;SDS011;45096;52.302;4.634;2023-07-08T09:44:39;6.53;;;3.97;;
56653;SDS011;45096;52.302;4.634;2023-07-08T09:47:15;5.80;;;3.90;;
56653;SDS011;45096;52.302;4.634;2023-07-08T09:49:46;15.85;;;5.38;;
56653;SDS011;45096;52.302;4.634;2023-07-08T09:52:13;11.32;;;5.28;;
56653;SDS011;45096;52.302;4.634;2023-07-08T09:54:40;9.35;;;4.28;;
56653;SDS011;45096;52.302;4.634;2023-07-08T09:57:09;4.18;;;3.88;;
56653;SDS011;45096;52.302;4.634;2023-07-08T09:59:38;7.18;;;4.18;;
56653;SDS011;45096;52.302;4.634;2023-07-08T10:02:15;6.00;;;4.93;;
56653;SDS011;45096;52.302;4.634;2023-07-08T10:04:55;5.75;;;4.93;;
56653;SDS011;45096;52.302;4.634;2023-07-08T10:07:23;5.82;;;4.40;;
56653;SDS011;45096;52.302;4.634;2023-07-08T10:09:49;6.03;;;4.05;;
56653;SDS011;45096;52.302;4.634;2023-07-08T10:12:15;6.82;;;4.47;;
56653;SDS011;45096;52.302;4.634;2023-07-08T10:14:42;5.38;;;4.22;;
56653;SDS011;45096;52.302;4.634;2023-07-08T10:17:11;5.70;;;4.65;;
56653;SDS011;45096;52.302;4.634;2023-07-08T10:19:39;5.30;;;4.68;;
56653;SDS011;45096;52.302;4.634;2023-07-08T10:22:11;4.95;;;4.38;;
56653;SDS011;45096;52.302;4.634;2023-07-08T10:24:48;6.60;;;4.68;;
56653;SDS011;45096;52.302;4.634;2023-07-08T10:27:25;4.50;;;4.05;;
56653;SDS011;45096;52.302;4.634;2023-07-08T10:29:54;4.80;;;4.25;;
56653;SDS011;45096;52.302;4.634;2023-07-08T10:32:26;4.47;;;4.07;;
56653;SDS011;45096;52.302;4.634;2023-07-08T10:34:57;5.10;;;4.10;;
56653;SDS011;45096;52.302;4.634;2023-07-08T10:37:28;5.70;;;4.75;;
56653;SDS011;45096;52.302;4.634;2023-07-08T10:40:00;6.45;;;4.70;;
56653;SDS011;45096;52.302;4.634;2023-07-08T10:42:43;6.57;;;5.28;;
56653;SDS011;45096;52.302;4.634;2023-07-08T10:45:15;10.43;;;5.90;;
56653;SDS011;45096;52.302;4.634;2023-07-08T10:47:55;7.93;;;5.53;;
56653;SDS011;45096;52.302;4.634;2023-07-08T10:50:30;5.82;;;5.00;;
56653;SDS011;45096;52.302;4.634;2023-07-08T10:53:11;6.00;;;4.88;;
56653;SDS011;45096;52.302;4.634;2023-07-08T10:55:49;6.32;;;4.70;;
56653;SDS011;45096;52.302;4.634;2023-07-08T10:58:23;7.68;;;5.22;;
56653;SDS011;45096;52.302;4.634;2023-07-08T11:00:55;8.32;;;5.72;;
56653;SDS011;45096;52.302;4.634;2023-07-08T11:03:41;5.57;;;4.80;;
56653;SDS011;45096;52.302;4.634;2023-07-08T11:06:14;7.60;;;5.38;;
56653;SDS011;45096;52.302;4.634;2023-07-08T11:08:44;6.78;;;5.18;;
56653;SDS011;45096;52.302;4.634;2023-07-08T11:11:15;5.57;;;5.07;;
56653;SDS011;45096;52.302;4.634;2023-07-08T11:13:49;5.30;;;4.80;;
56653;SDS011;45096;52.302;4.634;2023-07-08T11:16:20;5.28;;;4.68;;
56653;SDS011;45096;52.302;4.634;2023-07-08T11:18:48;5.32;;;4.72;;
56653;SDS011;45096;52.302;4.634;2023-07-08T11:21:19;5.50;;;5.00;;
56653;SDS011;45096;52.302;4.634;2023-07-08T11:23:47;5.20;;;4.70;;
56653;SDS011;45096;52.302;4.634;2023-07-08T11:26:18;6.47;;;5.88;;
56653;SDS011;45096;52.302;4.634;2023-07-08T11:28:46;5.70;;;5.00;;
56653;SDS011;45096;52.302;4.634;2023-07-08T11:31:13;6.25;;;5.25;;
56653;SDS011;45096;52.302;4.634;2023-07-08T11:33:39;5.90;;;5.22;;
56653;SDS011;45096;52.302;4.634;2023-07-08T11:36:05;7.32;;;6.10;;
56653;SDS011;45096;52.302;4.634;2023-07-08T11:38:31;5.63;;;5.10;;
56653;SDS011;45096;52.302;4.634;2023-07-08T11:40:58;6.05;;;5.05;;
56653;SDS011;45096;52.302;4.634;2023-07-08T11:43:26;5.57;;;5.07;;
56653;SDS011;45096;52.302;4.634;2023-07-08T11:45:54;6.68;;;5.50;;
56653;SDS011;45096;52.302;4.634;2023-07-08T11:48:21;5.85;;;5.25;;
56653;SDS011;45096;52.302;4.634;2023-07-08T11:50:49;6.32;;;5.25;;
56653;SDS011;45096;52.302;4.634;2023-07-08T11:53:31;6.15;;;5.55;;
56653;SDS011;45096;52.302;4.634;2023-07-08T11:56:00;5.78;;;5.22;;
56653;SDS011;45096;52.302;4.634;2023-07-08T11:58:28;6.85;;;5.50;;
56653;SDS011;45096;52.302;4.634;2023-07-08T12:00:57;5.88;;;5.38;;
56653;SDS011;45096;52.302;4.634;2023-07-08T12:03:28;6.40;;;5.80;;
56653;SDS011;45096;52.302;4.634;2023-07-08T12:05:58;5.28;;;4.65;;
56653;SDS011;45096;52.302;4.634;2023-07-08T12:08:24;6.82;;;5.18;;
56653;SDS011;45096;52.302;4.634;2023-07-08T12:10:58;6.47;;;5.75;;
56653;SDS011;45096;52.302;4.634;2023-07-08T12:13:24;5.13;;;4.72;;
56653;SDS011;45096;52.302;4.634;2023-07-08T12:15:51;5.70;;;5.10;;
56653;SDS011;45096;52.302;4.634;2023-07-08T12:18:19;5.90;;;5.28;;
56653;SDS011;45096;52.302;4.634;2023-07-08T12:20:52;5.80;;;5.20;;
56653;SDS011;45096;52.302;4.634;2023-07-08T12:23:19;6.72;;;5.47;;
56653;SDS011;45096;52.302;4.634;2023-07-08T12:25:46;5.82;;;5.32;;
56653;SDS011;45096;52.302;4.634;2023-07-08T12:28:12;6.13;;;5.50;;
56653;SDS011;45096;52.302;4.634;2023-07-08T12:30:39;5.00;;;4.60;;
56653;SDS011;45096;52.302;4.634;2023-07-08T12:33:08;6.03;;;4.55;;
56653;SDS011;45096;52.302;4.634;2023-07-08T12:35:36;8.10;;;5.72;;
56653;SDS011;45096;52.302;4.634;2023-07-08T12:38:02;5.95;;;5.40;;
56653;SDS011;45096;52.302;4.634;2023-07-08T12:40:30;5.82;;;5.32;;
56653;SDS011;45096;52.302;4.634;2023-07-08T12:42:56;6.72;;;5.50;;
56653;SDS011;45096;52.302;4.634;2023-07-08T12:45:22;5.78;;;5.20;;
56653;SDS011;45096;52.302;4.634;2023-07-08T12:47:48;6.03;;;5.25;;
56653;SDS011;45096;52.302;4.634;2023-07-08T12:50:15;5.53;;;5.00;;
56653;SDS011;45096;52.302;4.634;2023-07-08T12:52:42;7.95;;;5.50;;
56653;SDS011;45096;52.302;4.634;2023-07-08T12:55:09;5.82;;;5.32;;
56653;SDS011;45096;52.302;4.634;2023-07-08T12:57:35;8.35;;;5.57;;
56653;SDS011;45096;52.302;4.634;2023-07-08T13:00:00;5.70;;;5.15;;
56653;SDS011;45096;52.302;4.634;2023-07-08T13:02:26;5.53;;;5.07;;
56653;SDS011;45096;52.302;4.634;2023-07-08T13:04:55;6.00;;;5.32;;
56653;SDS011;45096;52.302;4.634;2023-07-08T13:07:25;5.72;;;5.22;;
56653;SDS011;45096;52.302;4.634;2023-07-08T13:09:58;6.07;;;5.57;;
56653;SDS011;45096;52.302;4.634;2023-07-08T13:12:24;5.57;;;5.07;;
56653;SDS011;45096;52.302;4.634;2023-07-08T13:14:51;5.63;;;5.13;;
56653;SDS011;45096;52.302;4.634;2023-07-08T13:17:18;6.35;;;5.75;;
56653;SDS011;45096;52.302;4.634;2023-07-08T13:19:43;6.45;;;5.85;;
56653;SDS011;45096;52.302;4.634;2023-07-08T13:22:12;5.80;;;5.25;;
56653;SDS011;45096;52.302;4.634;2023-07-08T13:24:41;6.28;;;5.68;;
56653;SDS011;45096;52.302;4.634;2023-07-08T13:27:08;6.55;;;5.10;;
56653;SDS011;45096;52.302;4.634;2023-07-08T13:29:38;6.13;;;5.53;;
56653;SDS011;45096;52.302;4.634;2023-07-08T13:32:05;5.85;;;5.30;;
56653;SDS011;45096;52.302;4.634;2023-07-08T13:34:31;5.63;;;5.05;;
56653;SDS011;45096;52.302;4.634;2023-07-08T13:36:57;5.63;;;5.13;;
56653;SDS011;45096;52.302;4.634;2023-07-08T13:39:24;5.32;;;4.93;;
56653;SDS011;45096;52.302;4.634;2023-07-08T13:41:53;5.03;;;4.63;;
56653;SDS011;45096;52.302;4.634;2023-07-08T13:44:18;6.00;;;5.40;;
56653;SDS011;45096;52.302;4.634;2023-07-08T13:46:45;6.47;;;5.20;;
56653;SDS011;45096;52.302;4.634;2023-07-08T13:49:15;5.05;;;4.68;;
56653;SDS011;45096;52.302;4.634;2023-07-08T13:51:44;4.72;;;4.32;;
56653;SDS011;45096;52.302;4.634;2023-07-08T13:54:13;4.75;;;4.35;;
56653;SDS011;45096;52.302;4.634;2023-07-08T13:56:41;5.72;;;4.80;;
56653;SDS011;45096;52.302;4.634;2023-07-08T13:59:09;6.22;;;4.75;;
56653;SDS011;45096;52.302;4.634;2023-07-08T14:01:37;5.60;;;5.10;;
56653;SDS011;45096;52.302;4.634;2023-07-08T14:04:04;6.43;;;5.07;;
56653;SDS011;45096;52.302;4.634;2023-07-08T14:06:31;5.32;;;4.30;;
56653;SDS011;45096;52.302;4.634;2023-07-08T14:08:59;4.70;;;4.30;;
56653;SDS011;45096;52.302;4.634;2023-07-08T14:11:26;5.20;;;4.78;;
56653;SDS011;45096;52.302;4.634;2023-07-08T14:13:51;7.20;;;4.72;;
56653;SDS011;45096;52.302;4.634;2023-07-08T14:16:20;4.60;;;4.07;;
56653;SDS011;45096;52.302;4.634;2023-07-08T14:18:48;5.63;;;5.10;;
56653;SDS011;45096;52.302;4.634;2023-07-08T14:21:14;5.20;;;4.80;;
56653;SDS011;45096;52.302;4.634;2023-07-08T14:23:39;5.72;;;5.07;;
56653;SDS011;45096;52.302;4.634;2023-07-08T14:26:07;5.45;;;4.97;;
56653;SDS011;45096;52.302;4.634;2023-07-08T14:28:32;5.10;;;4.70;;
56653;SDS011;45096;52.302;4.634;2023-07-08T14:30:58;4.80;;;4.40;;
56653;SDS011;45096;52.302;4.634;2023-07-08T14:33:24;5.03;;;4.63;;
56653;SDS011;45096;52.302;4.634;2023-07-08T14:35:50;5.20;;;4.63;;
56653;SDS011;45096;52.302;4.634;2023-07-08T14:38:15;5.63;;;4.97;;
56653;SDS011;45096;52.302;4.634;2023-07-08T14:40:41;5.80;;;5.30;;
56653;SDS011;45096;52.302;4.634;2023-07-08T14:43:10;5.97;;;5.47;;
56653;SDS011;45096;52.302;4.634;2023-07-08T14:45:39;6.03;;;5.43;;
56653;SDS011;45096;52.302;4.634;2023-07-08T14:48:07;4.90;;;4.50;;